sensor_id;sensor_type;location;lat;lon;timestamp;temperature;humidity
6581;DHT22;3324;50.796;7.228;2022-11-03T00:01:45;9.70;99.90
6581;DHT22;3324;50.796;7.228;2022-11-03T00:04:14;9.80;99.90
6581;DHT22;3324;50.796;7.228;2022-11-03T00:06:41;9.80;99.90
6581;DHT22;3324;50.796;7.228;2022-11-03T00:09:09;9.80;99.90
6581;DHT22;3324;50.796;7.228;2022-11-03T00:11:36;9.80;99.90
6581;DHT22;3324;50.796;7.228;2022-11-03T00:14:03;9.80;99.90
6581;DHT22;3324;50.796;7.228;2022-11-03T00:16:29;9.80;99.90
6581;DHT22;3324;50.796;7.228;2022-11-03T00:18:54;9.80;99.90
6581;DHT22;3324;50.796;7.228;2022-11-03T00:21:21;9.80;99.90
6581;DHT22;3324;50.796;7.228;2022-11-03T00:23:46;9.80;99.90
6581;DHT22;3324;50.796;7.228;2022-11-03T00:28:49;9.80;99.90
6581;DHT22;3324;50.796;7.228;2022-11-03T00:31:24;9.80;99.90
6581;DHT22;3324;50.796;7.228;2022-11-03T00:33:50;9.70;99.90
6581;DHT22;3324;50.796;7.228;2022-11-03T00:36:27;9.70;99.90
6581;DHT22;3324;50.796;7.228;2022-11-03T00:38:53;9.80;99.90
6581;DHT22;3324;50.796;7.228;2022-11-03T00:41:19;9.70;99.90
6581;DHT22;3324;50.796;7.228;2022-11-03T00:43:47;9.80;99.90
6581;DHT22;3324;50.796;7.228;2022-11-03T00:46:13;9.80;99.90
6581;DHT22;3324;50.796;7.228;2022-11-03T00:48:38;9.70;99.90
6581;DHT22;3324;50.796;7.228;2022-11-03T00:53:31;9.80;99.90
6581;DHT22;3324;50.796;7.228;2022-11-03T00:55:57;9.70;99.90
6581;DHT22;3324;50.796;7.228;2022-11-03T00:58:22;9.70;99.90
6581;DHT22;3324;50.796;7.228;2022-11-03T01:00:48;9.70;99.90
6581;DHT22;3324;50.796;7.228;2022-11-03T01:03:14;9.70;99.90
6581;DHT22;3324;50.796;7.228;2022-11-03T01:05:43;9.90;99.90
6581;DHT22;3324;50.796;7.228;2022-11-03T01:08:32;9.90;99.90
6581;DHT22;3324;50.796;7.228;2022-11-03T01:11:09;9.90;99.90
6581;DHT22;3324;50.796;7.228;2022-11-03T01:13:54;9.90;99.90
6581;DHT22;3324;50.796;7.228;2022-11-03T01:16:21;9.90;99.90
6581;DHT22;3324;50.796;7.228;2022-11-03T01:18:46;9.90;99.90
6581;DHT22;3324;50.796;7.228;2022-11-03T01:21:12;10.00;99.90
6581;DHT22;3324;50.796;7.228;2022-11-03T01:23:38;10.00;99.90
6581;DHT22;3324;50.796;7.228;2022-11-03T01:26:08;10.00;99.90
6581;DHT22;3324;50.796;7.228;2022-11-03T01:28:38;10.10;99.90
6581;DHT22;3324;50.796;7.228;2022-11-03T01:31:06;10.20;99.90
6581;DHT22;3324;50.796;7.228;2022-11-03T01:33:32;10.20;99.90
6581;DHT22;3324;50.796;7.228;2022-11-03T01:35:58;10.20;99.90
6581;DHT22;3324;50.796;7.228;2022-11-03T01:38:24;10.20;99.90
6581;DHT22;3324;50.796;7.228;2022-11-03T01:40:49;10.20;99.90
6581;DHT22;3324;50.796;7.228;2022-11-03T01:43:18;10.20;99.90
6581;DHT22;3324;50.796;7.228;2022-11-03T01:45:44;10.20;99.90
6581;DHT22;3324;50.796;7.228;2022-11-03T01:48:12;10.30;99.90
6581;DHT22;3324;50.796;7.228;2022-11-03T01:50:39;10.30;99.90
6581;DHT22;3324;50.796;7.228;2022-11-03T01:53:07;10.30;99.90
6581;DHT22;3324;50.796;7.228;2022-11-03T01:55:36;10.40;99.90
6581;DHT22;3324;50.796;7.228;2022-11-03T01:58:27;10.40;99.90
6581;DHT22;3324;50.796;7.228;2022-11-03T02:00:56;10.50;99.90
6581;DHT22;3324;50.796;7.228;2022-11-03T02:03:26;10.50;99.90
6581;DHT22;3324;50.796;7.228;2022-11-03T02:05:54;10.40;99.90
6581;DHT22;3324;50.796;7.228;2022-11-03T02:09:06;10.50;99.90
6581;DHT22;3324;50.796;7.228;2022-11-03T02:11:06;10.50;99.90
6581;DHT22;3324;50.796;7.228;2022-11-03T02:13:51;10.50;99.90
6581;DHT22;3324;50.796;7.228;2022-11-03T02:16:18;10.50;99.90
6581;DHT22;3324;50.796;7.228;2022-11-03T02:18:44;10.50;99.90
6581;DHT22;3324;50.796;7.228;2022-11-03T02:26:36;10.60;99.90
6581;DHT22;3324;50.796;7.228;2022-11-03T02:29:01;10.60;99.90
6581;DHT22;3324;50.796;7.228;2022-11-03T02:31:37;10.60;99.90
6581;DHT22;3324;50.796;7.228;2022-11-03T02:34:15;10.70;99.90
6581;DHT22;3324;50.796;7.228;2022-11-03T02:39:37;10.60;99.90
6581;DHT22;3324;50.796;7.228;2022-11-03T02:42:06;10.60;99.90
6581;DHT22;3324;50.796;7.228;2022-11-03T02:44:33;10.50;99.90
6581;DHT22;3324;50.796;7.228;2022-11-03T02:47:04;10.60;99.90
6581;DHT22;3324;50.796;7.228;2022-11-03T02:49:36;10.60;99.90
6581;DHT22;3324;50.796;7.228;2022-11-03T02:52:04;10.60;99.90
6581;DHT22;3324;50.796;7.228;2022-11-03T02:54:34;10.70;99.90
6581;DHT22;3324;50.796;7.228;2022-11-03T02:57:08;10.70;99.90
6581;DHT22;3324;50.796;7.228;2022-11-03T02:59:43;10.70;99.90
6581;DHT22;3324;50.796;7.228;2022-11-03T03:02:14;10.60;99.90
6581;DHT22;3324;50.796;7.228;2022-11-03T03:04:44;10.70;99.90
6581;DHT22;3324;50.796;7.228;2022-11-03T03:07:35;10.70;99.90
6581;DHT22;3324;50.796;7.228;2022-11-03T03:10:07;10.70;99.90
6581;DHT22;3324;50.796;7.228;2022-11-03T03:12:36;10.70;99.90
6581;DHT22;3324;50.796;7.228;2022-11-03T03:15:05;10.70;99.90
6581;DHT22;3324;50.796;7.228;2022-11-03T03:17:40;10.70;99.90
6581;DHT22;3324;50.796;7.228;2022-11-03T03:22:54;10.70;99.90
6581;DHT22;3324;50.796;7.228;2022-11-03T03:27:52;10.70;99.90
6581;DHT22;3324;50.796;7.228;2022-11-03T03:30:19;10.70;99.90
6581;DHT22;3324;50.796;7.228;2022-11-03T03:32:48;10.70;99.90
6581;DHT22;3324;50.796;7.228;2022-11-03T03:35:20;10.70;99.90
6581;DHT22;3324;50.796;7.228;2022-11-03T03:37:49;10.70;99.90
6581;DHT22;3324;50.796;7.228;2022-11-03T03:40:20;10.70;99.90
6581;DHT22;3324;50.796;7.228;2022-11-03T03:42:48;10.70;99.90
6581;DHT22;3324;50.796;7.228;2022-11-03T03:45:16;10.70;99.90
6581;DHT22;3324;50.796;7.228;2022-11-03T03:47:42;10.70;99.90
6581;DHT22;3324;50.796;7.228;2022-11-03T03:50:08;10.70;99.90
6581;DHT22;3324;50.796;7.228;2022-11-03T03:52:34;10.70;99.90
6581;DHT22;3324;50.796;7.228;2022-11-03T03:55:01;10.60;99.90
6581;DHT22;3324;50.796;7.228;2022-11-03T03:57:29;10.60;99.90
6581;DHT22;3324;50.796;7.228;2022-11-03T03:59:56;10.50;99.90
6581;DHT22;3324;50.796;7.228;2022-11-03T04:02:21;10.50;99.90
6581;DHT22;3324;50.796;7.228;2022-11-03T04:04:47;10.50;99.90
6581;DHT22;3324;50.796;7.228;2022-11-03T04:07:13;10.50;99.90
6581;DHT22;3324;50.796;7.228;2022-11-03T04:09:57;10.40;99.90
6581;DHT22;3324;50.796;7.228;2022-11-03T04:12:23;10.50;99.90
6581;DHT22;3324;50.796;7.228;2022-11-03T04:15:11;10.50;99.90
6581;DHT22;3324;50.796;7.228;2022-11-03T04:17:55;10.50;99.90
6581;DHT22;3324;50.796;7.228;2022-11-03T04:20:40;10.50;99.90
6581;DHT22;3324;50.796;7.228;2022-11-03T04:23:24;10.50;99.90
6581;DHT22;3324;50.796;7.228;2022-11-03T04:25:52;10.50;99.90
6581;DHT22;3324;50.796;7.228;2022-11-03T04:28:18;10.60;99.90
6581;DHT22;3324;50.796;7.228;2022-11-03T04:30:45;10.60;99.90
6581;DHT22;3324;50.796;7.228;2022-11-03T04:33:17;10.50;99.90
6581;DHT22;3324;50.796;7.228;2022-11-03T04:35:44;10.60;99.90
6581;DHT22;3324;50.796;7.228;2022-11-03T04:40:44;10.50;99.90
6581;DHT22;3324;50.796;7.228;2022-11-03T04:43:11;10.60;99.90
6581;DHT22;3324;50.796;7.228;2022-11-03T04:45:37;10.60;99.90
6581;DHT22;3324;50.796;7.228;2022-11-03T04:48:12;10.50;99.90
6581;DHT22;3324;50.796;7.228;2022-11-03T04:50:39;10.50;99.90
6581;DHT22;3324;50.796;7.228;2022-11-03T04:53:12;10.50;99.90
6581;DHT22;3324;50.796;7.228;2022-11-03T04:55:43;10.50;99.90
6581;DHT22;3324;50.796;7.228;2022-11-03T04:58:32;10.50;99.90
6581;DHT22;3324;50.796;7.228;2022-11-03T05:01:00;10.50;99.90
6581;DHT22;3324;50.796;7.228;2022-11-03T05:03:30;10.50;99.90
6581;DHT22;3324;50.796;7.228;2022-11-03T05:05:56;10.50;99.90
6581;DHT22;3324;50.796;7.228;2022-11-03T05:08:23;10.40;99.90
6581;DHT22;3324;50.796;7.228;2022-11-03T05:10:49;10.40;99.90
6581;DHT22;3324;50.796;7.228;2022-11-03T05:13:21;10.40;99.90
6581;DHT22;3324;50.796;7.228;2022-11-03T05:16:01;10.40;99.90
6581;DHT22;3324;50.796;7.228;2022-11-03T05:18:33;10.50;99.90
6581;DHT22;3324;50.796;7.228;2022-11-03T05:21:08;10.40;99.90
6581;DHT22;3324;50.796;7.228;2022-11-03T05:23:47;10.40;99.90
6581;DHT22;3324;50.796;7.228;2022-11-03T05:26:27;10.30;99.90
6581;DHT22;3324;50.796;7.228;2022-11-03T05:29:01;10.30;99.90
6581;DHT22;3324;50.796;7.228;2022-11-03T05:31:29;10.30;99.90
6581;DHT22;3324;50.796;7.228;2022-11-03T05:34:00;10.30;99.90
6581;DHT22;3324;50.796;7.228;2022-11-03T05:36:29;10.20;99.90
6581;DHT22;3324;50.796;7.228;2022-11-03T05:38:58;10.20;99.90
6581;DHT22;3324;50.796;7.228;2022-11-03T05:41:27;10.20;99.90
6581;DHT22;3324;50.796;7.228;2022-11-03T05:43:57;10.20;99.90
6581;DHT22;3324;50.796;7.228;2022-11-03T05:46:26;10.30;99.90
6581;DHT22;3324;50.796;7.228;2022-11-03T05:48:52;10.30;99.90
6581;DHT22;3324;50.796;7.228;2022-11-03T05:51:21;10.30;99.90
6581;DHT22;3324;50.796;7.228;2022-11-03T05:53:53;10.40;99.90
6581;DHT22;3324;50.796;7.228;2022-11-03T05:56:23;10.40;99.90
6581;DHT22;3324;50.796;7.228;2022-11-03T05:58:50;10.40;99.90
6581;DHT22;3324;50.796;7.228;2022-11-03T06:01:22;10.40;99.90
6581;DHT22;3324;50.796;7.228;2022-11-03T06:03:49;10.40;99.90
6581;DHT22;3324;50.796;7.228;2022-11-03T06:08:41;10.50;99.90
6581;DHT22;3324;50.796;7.228;2022-11-03T06:11:08;10.40;99.90
6581;DHT22;3324;50.796;7.228;2022-11-03T06:13:38;10.40;99.90
6581;DHT22;3324;50.796;7.228;2022-11-03T06:16:35;10.50;99.90
6581;DHT22;3324;50.796;7.228;2022-11-03T06:19:13;10.50;99.90
6581;DHT22;3324;50.796;7.228;2022-11-03T06:21:39;10.50;99.90
6581;DHT22;3324;50.796;7.228;2022-11-03T06:24:08;10.50;99.90
6581;DHT22;3324;50.796;7.228;2022-11-03T06:26:35;10.50;99.90
6581;DHT22;3324;50.796;7.228;2022-11-03T06:29:01;10.60;99.90
6581;DHT22;3324;50.796;7.228;2022-11-03T06:31:29;10.60;99.90
6581;DHT22;3324;50.796;7.228;2022-11-03T06:33:56;10.50;99.90
6581;DHT22;3324;50.796;7.228;2022-11-03T06:36:34;10.60;99.90
6581;DHT22;3324;50.796;7.228;2022-11-03T06:39:08;10.60;99.90
6581;DHT22;3324;50.796;7.228;2022-11-03T06:41:38;10.60;99.90
6581;DHT22;3324;50.796;7.228;2022-11-03T06:44:24;10.60;99.90
6581;DHT22;3324;50.796;7.228;2022-11-03T06:46:53;10.70;99.90
6581;DHT22;3324;50.796;7.228;2022-11-03T06:49:32;10.60;99.90
6581;DHT22;3324;50.796;7.228;2022-11-03T06:52:01;10.70;99.90
6581;DHT22;3324;50.796;7.228;2022-11-03T06:54:30;10.60;99.90
6581;DHT22;3324;50.796;7.228;2022-11-03T06:56:55;10.70;99.90
6581;DHT22;3324;50.796;7.228;2022-11-03T06:59:21;10.70;99.90
6581;DHT22;3324;50.796;7.228;2022-11-03T07:01:52;10.80;99.90
6581;DHT22;3324;50.796;7.228;2022-11-03T07:04:23;10.80;99.90
6581;DHT22;3324;50.796;7.228;2022-11-03T07:07:00;10.80;99.90
6581;DHT22;3324;50.796;7.228;2022-11-03T07:09:27;10.90;99.90
6581;DHT22;3324;50.796;7.228;2022-11-03T07:11:54;10.90;99.90
6581;DHT22;3324;50.796;7.228;2022-11-03T07:14:27;10.80;99.90
6581;DHT22;3324;50.796;7.228;2022-11-03T07:17:02;10.80;99.90
6581;DHT22;3324;50.796;7.228;2022-11-03T07:19:28;10.80;99.90
6581;DHT22;3324;50.796;7.228;2022-11-03T07:24:45;10.80;99.90
6581;DHT22;3324;50.796;7.228;2022-11-03T07:27:29;10.80;99.90
6581;DHT22;3324;50.796;7.228;2022-11-03T07:30:11;10.80;99.90
6581;DHT22;3324;50.796;7.228;2022-11-03T07:32:38;10.90;99.90
6581;DHT22;3324;50.796;7.228;2022-11-03T07:35:25;10.90;99.90
6581;DHT22;3324;50.796;7.228;2022-11-03T07:37:51;10.90;99.90
6581;DHT22;3324;50.796;7.228;2022-11-03T07:40:27;10.90;99.90
6581;DHT22;3324;50.796;7.228;2022-11-03T07:42:58;10.90;99.90
6581;DHT22;3324;50.796;7.228;2022-11-03T07:48:18;11.00;99.90
6581;DHT22;3324;50.796;7.228;2022-11-03T07:50:46;11.10;99.90
6581;DHT22;3324;50.796;7.228;2022-11-03T07:53:39;11.20;99.90
6581;DHT22;3324;50.796;7.228;2022-11-03T07:56:21;11.30;99.90
6581;DHT22;3324;50.796;7.228;2022-11-03T07:58:53;11.50;99.90
6581;DHT22;3324;50.796;7.228;2022-11-03T08:01:28;11.50;99.90
6581;DHT22;3324;50.796;7.228;2022-11-03T08:04:02;11.70;99.90
6581;DHT22;3324;50.796;7.228;2022-11-03T08:06:29;11.80;99.90
6581;DHT22;3324;50.796;7.228;2022-11-03T08:08:55;11.90;99.90
6581;DHT22;3324;50.796;7.228;2022-11-03T08:11:20;12.00;99.90
6581;DHT22;3324;50.796;7.228;2022-11-03T08:13:48;12.10;99.90
6581;DHT22;3324;50.796;7.228;2022-11-03T08:16:14;12.20;99.90
6581;DHT22;3324;50.796;7.228;2022-11-03T08:18:39;12.30;99.90
6581;DHT22;3324;50.796;7.228;2022-11-03T08:21:05;12.40;99.90
6581;DHT22;3324;50.796;7.228;2022-11-03T08:23:30;12.40;99.90
6581;DHT22;3324;50.796;7.228;2022-11-03T08:25:56;12.40;99.90
6581;DHT22;3324;50.796;7.228;2022-11-03T08:28:22;12.40;99.90
6581;DHT22;3324;50.796;7.228;2022-11-03T08:30:48;12.40;99.90
6581;DHT22;3324;50.796;7.228;2022-11-03T08:33:13;12.40;99.90
6581;DHT22;3324;50.796;7.228;2022-11-03T08:35:39;12.40;99.90
6581;DHT22;3324;50.796;7.228;2022-11-03T08:38:04;12.30;99.90
6581;DHT22;3324;50.796;7.228;2022-11-03T08:40:31;12.50;99.90
6581;DHT22;3324;50.796;7.228;2022-11-03T08:42:57;12.50;99.90
6581;DHT22;3324;50.796;7.228;2022-11-03T08:45:22;12.50;99.90
6581;DHT22;3324;50.796;7.228;2022-11-03T08:47:48;12.60;99.90
6581;DHT22;3324;50.796;7.228;2022-11-03T08:50:14;12.80;99.90
6581;DHT22;3324;50.796;7.228;2022-11-03T08:52:39;12.90;99.90
6581;DHT22;3324;50.796;7.228;2022-11-03T08:55:05;12.90;99.90
6581;DHT22;3324;50.796;7.228;2022-11-03T08:57:31;13.10;99.90
6581;DHT22;3324;50.796;7.228;2022-11-03T08:59:57;13.20;99.90
6581;DHT22;3324;50.796;7.228;2022-11-03T09:02:23;13.30;99.90
6581;DHT22;3324;50.796;7.228;2022-11-03T09:04:48;13.50;99.90
6581;DHT22;3324;50.796;7.228;2022-11-03T09:07:14;13.50;99.90
6581;DHT22;3324;50.796;7.228;2022-11-03T09:09:39;13.60;99.90
6581;DHT22;3324;50.796;7.228;2022-11-03T09:12:05;13.70;99.90
6581;DHT22;3324;50.796;7.228;2022-11-03T09:14:31;13.70;99.90
6581;DHT22;3324;50.796;7.228;2022-11-03T09:16:56;13.80;99.90
6581;DHT22;3324;50.796;7.228;2022-11-03T09:19:22;13.90;99.90
6581;DHT22;3324;50.796;7.228;2022-11-03T09:21:47;13.90;99.90
6581;DHT22;3324;50.796;7.228;2022-11-03T09:24:13;13.80;99.90
6581;DHT22;3324;50.796;7.228;2022-11-03T09:26:39;13.90;99.90
6581;DHT22;3324;50.796;7.228;2022-11-03T09:29:04;14.00;99.90
6581;DHT22;3324;50.796;7.228;2022-11-03T09:31:30;14.00;99.90
6581;DHT22;3324;50.796;7.228;2022-11-03T09:33:55;14.00;99.90
6581;DHT22;3324;50.796;7.228;2022-11-03T09:36:21;14.10;99.90
6581;DHT22;3324;50.796;7.228;2022-11-03T09:38:47;14.10;99.90
6581;DHT22;3324;50.796;7.228;2022-11-03T09:41:12;14.10;99.90
6581;DHT22;3324;50.796;7.228;2022-11-03T09:43:43;14.10;99.90
6581;DHT22;3324;50.796;7.228;2022-11-03T09:46:10;14.10;99.90
6581;DHT22;3324;50.796;7.228;2022-11-03T09:48:35;14.00;99.90
6581;DHT22;3324;50.796;7.228;2022-11-03T09:51:01;14.00;99.90
6581;DHT22;3324;50.796;7.228;2022-11-03T09:53:27;14.00;99.90
6581;DHT22;3324;50.796;7.228;2022-11-03T09:55:54;13.90;99.90
6581;DHT22;3324;50.796;7.228;2022-11-03T09:58:20;13.90;99.90
6581;DHT22;3324;50.796;7.228;2022-11-03T10:00:46;13.90;99.90
6581;DHT22;3324;50.796;7.228;2022-11-03T10:03:15;14.00;99.90
6581;DHT22;3324;50.796;7.228;2022-11-03T10:05:45;14.00;99.90
6581;DHT22;3324;50.796;7.228;2022-11-03T10:08:23;13.90;99.90
6581;DHT22;3324;50.796;7.228;2022-11-03T10:10:50;14.00;99.90
6581;DHT22;3324;50.796;7.228;2022-11-03T10:13:36;14.00;99.90
6581;DHT22;3324;50.796;7.228;2022-11-03T10:16:05;14.10;99.90
6581;DHT22;3324;50.796;7.228;2022-11-03T10:18:32;14.30;99.90
6581;DHT22;3324;50.796;7.228;2022-11-03T10:21:07;14.20;99.90
6581;DHT22;3324;50.796;7.228;2022-11-03T10:23:35;14.30;99.90
6581;DHT22;3324;50.796;7.228;2022-11-03T10:28:35;14.40;99.90
6581;DHT22;3324;50.796;7.228;2022-11-03T10:31:07;14.40;99.90
6581;DHT22;3324;50.796;7.228;2022-11-03T10:33:53;14.40;99.90
6581;DHT22;3324;50.796;7.228;2022-11-03T10:38:46;14.40;99.90
6581;DHT22;3324;50.796;7.228;2022-11-03T10:43:40;14.40;99.90
6581;DHT22;3324;50.796;7.228;2022-11-03T10:46:12;14.40;99.90
6581;DHT22;3324;50.796;7.228;2022-11-03T10:48:38;14.50;99.90
6581;DHT22;3324;50.796;7.228;2022-11-03T10:51:04;14.50;99.90
6581;DHT22;3324;50.796;7.228;2022-11-03T10:53:30;14.40;99.90
6581;DHT22;3324;50.796;7.228;2022-11-03T10:55:55;14.50;99.90
6581;DHT22;3324;50.796;7.228;2022-11-03T10:58:22;14.50;99.90
6581;DHT22;3324;50.796;7.228;2022-11-03T11:00:47;14.50;99.90
6581;DHT22;3324;50.796;7.228;2022-11-03T11:03:13;14.60;99.90
6581;DHT22;3324;50.796;7.228;2022-11-03T11:05:45;14.60;99.90
6581;DHT22;3324;50.796;7.228;2022-11-03T11:08:14;14.50;99.90
6581;DHT22;3324;50.796;7.228;2022-11-03T11:10:44;14.40;99.90
6581;DHT22;3324;50.796;7.228;2022-11-03T11:15:53;14.30;99.90
6581;DHT22;3324;50.796;7.228;2022-11-03T11:20:57;14.20;99.90
6581;DHT22;3324;50.796;7.228;2022-11-03T11:26:17;14.00;99.90
6581;DHT22;3324;50.796;7.228;2022-11-03T11:31:36;13.90;99.90
6581;DHT22;3324;50.796;7.228;2022-11-03T11:36:38;14.00;99.90
6581;DHT22;3324;50.796;7.228;2022-11-03T11:42:07;14.00;99.90
6581;DHT22;3324;50.796;7.228;2022-11-03T11:52:40;14.00;99.90
6581;DHT22;3324;50.796;7.228;2022-11-03T11:55:25;14.00;99.90
6581;DHT22;3324;50.796;7.228;2022-11-03T11:57:53;13.90;99.90
6581;DHT22;3324;50.796;7.228;2022-11-03T12:00:25;13.90;99.90
6581;DHT22;3324;50.796;7.228;2022-11-03T12:02:52;13.80;99.90
6581;DHT22;3324;50.796;7.228;2022-11-03T12:05:20;13.80;99.90
6581;DHT22;3324;50.796;7.228;2022-11-03T12:07:47;13.80;99.90
6581;DHT22;3324;50.796;7.228;2022-11-03T12:10:22;13.70;99.90
6581;DHT22;3324;50.796;7.228;2022-11-03T12:12:50;13.70;99.90
6581;DHT22;3324;50.796;7.228;2022-11-03T12:15:54;13.80;99.90
6581;DHT22;3324;50.796;7.228;2022-11-03T12:20:58;13.70;99.90
6581;DHT22;3324;50.796;7.228;2022-11-03T12:23:41;13.70;99.90
6581;DHT22;3324;50.796;7.228;2022-11-03T12:26:14;13.60;99.90
6581;DHT22;3324;50.796;7.228;2022-11-03T12:28:40;13.70;99.90
6581;DHT22;3324;50.796;7.228;2022-11-03T12:31:06;13.70;99.90
6581;DHT22;3324;50.796;7.228;2022-11-03T12:33:32;13.70;99.90
6581;DHT22;3324;50.796;7.228;2022-11-03T12:35:57;13.70;99.90
6581;DHT22;3324;50.796;7.228;2022-11-03T12:38:23;13.70;99.90
6581;DHT22;3324;50.796;7.228;2022-11-03T12:40:49;13.60;99.90
6581;DHT22;3324;50.796;7.228;2022-11-03T12:43:15;13.70;99.90
6581;DHT22;3324;50.796;7.228;2022-11-03T12:45:41;13.70;99.90
6581;DHT22;3324;50.796;7.228;2022-11-03T12:48:07;13.70;99.90
6581;DHT22;3324;50.796;7.228;2022-11-03T12:50:33;13.70;99.90
6581;DHT22;3324;50.796;7.228;2022-11-03T12:52:59;13.70;99.90
6581;DHT22;3324;50.796;7.228;2022-11-03T12:55:24;13.70;99.90
6581;DHT22;3324;50.796;7.228;2022-11-03T12:57:50;13.70;99.90
6581;DHT22;3324;50.796;7.228;2022-11-03T13:00:15;13.80;99.90
6581;DHT22;3324;50.796;7.228;2022-11-03T13:02:42;13.80;99.90
6581;DHT22;3324;50.796;7.228;2022-11-03T13:05:08;13.80;99.90
6581;DHT22;3324;50.796;7.228;2022-11-03T13:07:33;13.80;99.90
6581;DHT22;3324;50.796;7.228;2022-11-03T13:09:59;13.80;99.90
6581;DHT22;3324;50.796;7.228;2022-11-03T13:12:25;13.70;99.90
6581;DHT22;3324;50.796;7.228;2022-11-03T13:15:01;13.80;99.90
6581;DHT22;3324;50.796;7.228;2022-11-03T13:17:27;13.80;99.90
6581;DHT22;3324;50.796;7.228;2022-11-03T13:19:53;13.80;99.90
6581;DHT22;3324;50.796;7.228;2022-11-03T13:22:19;13.80;99.90
6581;DHT22;3324;50.796;7.228;2022-11-03T13:24:44;13.70;99.90
6581;DHT22;3324;50.796;7.228;2022-11-03T13:27:10;13.70;99.90
6581;DHT22;3324;50.796;7.228;2022-11-03T13:29:36;13.70;99.90
6581;DHT22;3324;50.796;7.228;2022-11-03T13:32:05;13.70;99.90
6581;DHT22;3324;50.796;7.228;2022-11-03T13:34:31;13.70;99.90
6581;DHT22;3324;50.796;7.228;2022-11-03T13:36:57;13.80;99.90
6581;DHT22;3324;50.796;7.228;2022-11-03T13:39:23;13.80;99.90
6581;DHT22;3324;50.796;7.228;2022-11-03T13:41:48;13.70;99.90
6581;DHT22;3324;50.796;7.228;2022-11-03T13:44:14;13.70;99.90
6581;DHT22;3324;50.796;7.228;2022-11-03T13:46:39;13.70;99.90
6581;DHT22;3324;50.796;7.228;2022-11-03T13:49:05;13.70;99.90
6581;DHT22;3324;50.796;7.228;2022-11-03T13:51:30;13.70;99.90
6581;DHT22;3324;50.796;7.228;2022-11-03T13:53:56;13.70;99.90
6581;DHT22;3324;50.796;7.228;2022-11-03T13:56:22;13.70;99.90
6581;DHT22;3324;50.796;7.228;2022-11-03T13:58:47;13.70;99.90
6581;DHT22;3324;50.796;7.228;2022-11-03T14:01:13;13.70;99.90
6581;DHT22;3324;50.796;7.228;2022-11-03T14:03:39;13.70;99.90
6581;DHT22;3324;50.796;7.228;2022-11-03T14:06:04;13.70;99.90
6581;DHT22;3324;50.796;7.228;2022-11-03T14:08:30;13.70;99.90
6581;DHT22;3324;50.796;7.228;2022-11-03T14:10:56;13.70;99.90
6581;DHT22;3324;50.796;7.228;2022-11-03T14:13:21;13.70;99.90
6581;DHT22;3324;50.796;7.228;2022-11-03T14:15:47;13.70;99.90
6581;DHT22;3324;50.796;7.228;2022-11-03T14:18:12;13.60;99.90
6581;DHT22;3324;50.796;7.228;2022-11-03T14:20:38;13.70;99.90
6581;DHT22;3324;50.796;7.228;2022-11-03T14:23:03;13.70;99.90
6581;DHT22;3324;50.796;7.228;2022-11-03T14:25:29;13.70;99.90
6581;DHT22;3324;50.796;7.228;2022-11-03T14:27:55;13.70;99.90
6581;DHT22;3324;50.796;7.228;2022-11-03T14:30:20;13.70;99.90
6581;DHT22;3324;50.796;7.228;2022-11-03T14:32:46;13.70;99.90
6581;DHT22;3324;50.796;7.228;2022-11-03T14:35:11;13.70;99.90
6581;DHT22;3324;50.796;7.228;2022-11-03T14:37:37;13.70;99.90
6581;DHT22;3324;50.796;7.228;2022-11-03T14:40:04;13.70;99.90
6581;DHT22;3324;50.796;7.228;2022-11-03T14:42:30;13.80;99.90
6581;DHT22;3324;50.796;7.228;2022-11-03T14:44:55;13.80;99.90
6581;DHT22;3324;50.796;7.228;2022-11-03T14:47:21;13.70;99.90
6581;DHT22;3324;50.796;7.228;2022-11-03T14:49:47;13.80;99.90
6581;DHT22;3324;50.796;7.228;2022-11-03T14:52:14;13.80;99.90
6581;DHT22;3324;50.796;7.228;2022-11-03T14:54:40;13.70;99.90
6581;DHT22;3324;50.796;7.228;2022-11-03T14:57:06;13.80;99.90
6581;DHT22;3324;50.796;7.228;2022-11-03T14:59:34;13.70;99.90
6581;DHT22;3324;50.796;7.228;2022-11-03T15:02:00;13.70;99.90
6581;DHT22;3324;50.796;7.228;2022-11-03T15:04:26;13.60;99.90
6581;DHT22;3324;50.796;7.228;2022-11-03T15:06:51;13.50;99.90
6581;DHT22;3324;50.796;7.228;2022-11-03T15:09:17;13.40;99.90
6581;DHT22;3324;50.796;7.228;2022-11-03T15:11:44;13.40;99.90
6581;DHT22;3324;50.796;7.228;2022-11-03T15:14:10;13.40;99.90
6581;DHT22;3324;50.796;7.228;2022-11-03T15:16:36;13.30;99.90
6581;DHT22;3324;50.796;7.228;2022-11-03T15:19:06;13.20;99.90
6581;DHT22;3324;50.796;7.228;2022-11-03T15:21:32;13.20;99.90
6581;DHT22;3324;50.796;7.228;2022-11-03T15:23:58;13.10;99.90
6581;DHT22;3324;50.796;7.228;2022-11-03T15:26:24;13.10;99.90
6581;DHT22;3324;50.796;7.228;2022-11-03T15:28:49;13.00;99.90
6581;DHT22;3324;50.796;7.228;2022-11-03T15:31:15;13.00;99.90
6581;DHT22;3324;50.796;7.228;2022-11-03T15:33:41;13.00;99.90
6581;DHT22;3324;50.796;7.228;2022-11-03T15:36:06;12.80;99.90
6581;DHT22;3324;50.796;7.228;2022-11-03T15:38:33;12.80;99.90
6581;DHT22;3324;50.796;7.228;2022-11-03T15:40:58;12.80;99.90
6581;DHT22;3324;50.796;7.228;2022-11-03T15:43:41;12.80;99.90
6581;DHT22;3324;50.796;7.228;2022-11-03T15:46:07;12.80;99.90
6581;DHT22;3324;50.796;7.228;2022-11-03T15:48:33;12.80;99.90
6581;DHT22;3324;50.796;7.228;2022-11-03T15:50:59;12.70;99.90
6581;DHT22;3324;50.796;7.228;2022-11-03T15:53:24;12.70;99.90
6581;DHT22;3324;50.796;7.228;2022-11-03T15:55:50;12.70;99.90
6581;DHT22;3324;50.796;7.228;2022-11-03T15:58:15;12.60;99.90
6581;DHT22;3324;50.796;7.228;2022-11-03T16:00:41;12.70;99.90
6581;DHT22;3324;50.796;7.228;2022-11-03T16:03:06;12.60;99.90
6581;DHT22;3324;50.796;7.228;2022-11-03T16:05:32;12.60;99.90
6581;DHT22;3324;50.796;7.228;2022-11-03T16:07:58;12.60;99.90
6581;DHT22;3324;50.796;7.228;2022-11-03T16:10:25;12.60;99.90
6581;DHT22;3324;50.796;7.228;2022-11-03T16:12:50;12.60;99.90
6581;DHT22;3324;50.796;7.228;2022-11-03T16:15:16;12.70;99.90
6581;DHT22;3324;50.796;7.228;2022-11-03T16:17:41;12.70;99.90
6581;DHT22;3324;50.796;7.228;2022-11-03T16:20:08;12.70;99.90
6581;DHT22;3324;50.796;7.228;2022-11-03T16:22:34;12.70;99.90
6581;DHT22;3324;50.796;7.228;2022-11-03T16:25:02;12.70;99.90
6581;DHT22;3324;50.796;7.228;2022-11-03T16:27:28;12.70;99.90
6581;DHT22;3324;50.796;7.228;2022-11-03T16:29:53;12.80;99.90
6581;DHT22;3324;50.796;7.228;2022-11-03T16:32:20;12.80;99.90
6581;DHT22;3324;50.796;7.228;2022-11-03T16:34:47;12.80;99.90
6581;DHT22;3324;50.796;7.228;2022-11-03T16:37:13;12.90;99.90
6581;DHT22;3324;50.796;7.228;2022-11-03T16:39:39;12.90;99.90
6581;DHT22;3324;50.796;7.228;2022-11-03T16:42:05;12.90;99.90
6581;DHT22;3324;50.796;7.228;2022-11-03T16:44:31;13.00;99.90
6581;DHT22;3324;50.796;7.228;2022-11-03T16:46:56;13.00;99.90
6581;DHT22;3324;50.796;7.228;2022-11-03T16:49:22;13.00;99.90
6581;DHT22;3324;50.796;7.228;2022-11-03T16:51:47;13.00;99.90
6581;DHT22;3324;50.796;7.228;2022-11-03T16:54:13;13.00;99.90
6581;DHT22;3324;50.796;7.228;2022-11-03T16:56:39;13.00;99.90
6581;DHT22;3324;50.796;7.228;2022-11-03T16:59:04;13.10;99.90
6581;DHT22;3324;50.796;7.228;2022-11-03T17:01:30;13.10;99.90
6581;DHT22;3324;50.796;7.228;2022-11-03T17:03:55;13.10;99.90
6581;DHT22;3324;50.796;7.228;2022-11-03T17:06:21;13.10;99.90
6581;DHT22;3324;50.796;7.228;2022-11-03T17:08:47;13.10;99.90
6581;DHT22;3324;50.796;7.228;2022-11-03T17:11:12;13.00;99.90
6581;DHT22;3324;50.796;7.228;2022-11-03T17:13:38;13.00;99.90
6581;DHT22;3324;50.796;7.228;2022-11-03T17:16:03;13.00;99.90